Bristol, Tennessee
Current Conditions -  °F | °C
As of 12:15 PM on Sunday 23 Nov 2014 (Local Time) from KVJI Reporting Station
Overcast Overcast  
Wind Chill: 59°   Ceiling: 2800
Heat Index: 59°   Visibility: 10mi
Dew Point: 47°   Wind: 13mph
Humidity: 65%   Direction: 180°S
Pressure: 30.01"   Gusts: 16mph
Location:  36.59°N, 82.22°W
Report Text: KVJI 231715Z AUTO 18011G14KT 10SM BKN028 BKN060 OVC075 15/09 A3001 RMK AO2 T01500085
Loading
Personal Weather Stations






























Interactive Weather Map New forecast layout! Learn more

10-Day Weather Forecast

Advertisements
Track Severe Weather on mobile